Open Full Screen Window  High Contrast Mode
Wind Gusting 00 knots
06
July 24, 2017 12:50 PM EDT
Weather Information
Wind Direction
  330 °
Wind Speed
  06 kt (7 mph)
Wind Gust
  00 kt (0 mph)
Altimeter
29.96 in
Visibility
10 SM
Temperature
27° C
81° F
Dewpoint
20° C
68° F
Humidity
66%
1hr Rain Fall
00.00 in.
24hr Rain Fall
00.00 in.
Sky Condition
Broken @ 4,600 ft
Scattered @ 3,700 ft
Scattered @ 3,100 ft
VFR

METAR KI69 241650Z AUTO 33006KT 10SM SCT031 SCT037 BKN046 27/20 A2996 RMK AO2 T02730200

*Background is not an actual portrayal of the airport.